Time;durP1;ratioP1;P1;durP2;ratioP2;P2;SDS_P1;SDS_P2;PMS_P1;PMS_P2;Temp;Humidity;BMP_temperature;BMP_pressure;BME280_temperature;BME280_humidity;BME280_pressure;Samples;Min_cycle;Max_cycle;Signal;HPM_P1;HPM_P2
2022/12/03 00:00:19;;;;;;;51.72;27.23;;;1.50;97.50;;;;;;5032719;28;20373;-67
2022/12/03 00:02:45;;;;;;;53.95;27.45;;;1.50;97.60;;;;;;5034254;28;20041;-68
2022/12/03 00:05:11;;;;;;;58.53;28.20;;;1.50;97.50;;;;;;5045279;28;20032;-67
2022/12/03 00:07:36;;;;;;;46.47;26.23;;;1.50;97.40;;;;;;5023775;28;20025;-67
2022/12/03 00:10:04;;;;;;;55.72;25.77;;;1.40;97.40;;;;;;5034242;28;20030;-68
2022/12/03 00:12:29;;;;;;;53.22;27.00;;;1.40;97.50;;;;;;5024969;28;20030;-67
2022/12/03 00:14:55;;;;;;;50.95;27.48;;;1.40;97.50;;;;;;5031513;28;20087;-67
2022/12/03 00:17:20;;;;;;;48.10;25.98;;;1.40;97.40;;;;;;5021000;28;20029;-67
2022/12/03 00:19:46;;;;;;;51.67;27.65;;;1.40;97.50;;;;;;5033835;28;20568;-67
2022/12/03 00:22:12;;;;;;;55.70;27.48;;;1.40;97.50;;;;;;5032430;28;20456;-67
2022/12/03 00:24:37;;;;;;;47.58;24.67;;;1.40;97.60;;;;;;5033423;28;20041;-67
2022/12/03 00:27:04;;;;;;;47.33;25.42;;;1.40;97.50;;;;;;5032249;28;20034;-67
2022/12/03 00:29:30;;;;;;;49.17;26.63;;;1.40;97.40;;;;;;5032342;28;20449;-66
2022/12/03 00:31:56;;;;;;;50.13;26.27;;;1.40;97.50;;;;;;5032287;28;20049;-67
2022/12/03 00:34:22;;;;;;;47.28;25.42;;;1.40;97.40;;;;;;5032971;28;20029;-67
2022/12/03 00:36:48;;;;;;;49.67;26.10;;;1.40;97.40;;;;;;5032336;28;20480;-67
2022/12/03 00:39:13;;;;;;;46.53;25.17;;;1.50;97.40;;;;;;5032641;28;20472;-66
2022/12/03 00:41:40;;;;;;;53.28;27.75;;;1.50;97.50;;;;;;5033425;28;20046;-67
2022/12/03 00:44:06;;;;;;;53.13;27.73;;;1.50;97.30;;;;;;5032600;28;20053;-66
2022/12/03 00:46:31;;;;;;;50.42;26.50;;;1.40;97.20;;;;;;5033642;28;20117;-69
2022/12/03 00:48:57;;;;;;;49.30;25.98;;;1.40;97.30;;;;;;5031039;28;20033;-68
2022/12/03 00:51:22;;;;;;;53.00;25.98;;;1.40;97.40;;;;;;5031167;28;20086;-69
2022/12/03 00:53:48;;;;;;;45.58;24.50;;;1.40;97.30;;;;;;5032042;28;20057;-70
2022/12/03 00:56:15;;;;;;;48.83;26.73;;;1.40;97.40;;;;;;5033707;28;20112;-68
2022/12/03 00:58:40;;;;;;;48.20;26.85;;;1.30;97.40;;;;;;5032626;28;20044;-69
2022/12/03 01:01:06;;;;;;;47.30;26.10;;;1.30;97.30;;;;;;5032123;28;20022;-68
2022/12/03 01:03:31;;;;;;;46.78;26.42;;;1.40;97.40;;;;;;5030522;28;20037;-67
2022/12/03 01:05:57;;;;;;;53.28;29.98;;;1.40;97.40;;;;;;5030300;28;20036;-68
2022/12/03 01:08:23;;;;;;;49.75;27.17;;;1.40;97.30;;;;;;5031302;28;20061;-69
2022/12/03 01:10:48;;;;;;;50.95;26.83;;;1.40;97.20;;;;;;5033195;28;20029;-69
2022/12/03 01:13:14;;;;;;;47.67;29.52;;;1.40;97.30;;;;;;5033068;28;20033;-69
2022/12/03 01:15:40;;;;;;;53.30;29.90;;;1.40;97.30;;;;;;5032004;28;20421;-69
2022/12/03 01:18:05;;;;;;;52.53;28.08;;;1.40;97.20;;;;;;5018722;28;20034;-68
2022/12/03 01:20:31;;;;;;;52.03;26.25;;;1.40;97.20;;;;;;5029554;28;20036;-68
2022/12/03 01:22:57;;;;;;;56.38;29.23;;;1.40;97.30;;;;;;5033721;28;20033;-69
2022/12/03 01:25:22;;;;;;;55.22;29.08;;;1.40;97.30;;;;;;5030206;28;20065;-68
2022/12/03 01:27:48;;;;;;;49.95;26.77;;;1.50;97.30;;;;;;5032603;28;20469;-68
2022/12/03 01:30:14;;;;;;;57.92;29.05;;;1.50;97.30;;;;;;5027388;28;20041;-68
2022/12/03 01:32:39;;;;;;;56.83;31.05;;;1.50;97.20;;;;;;5033350;28;20468;-69
2022/12/03 01:35:05;;;;;;;62.63;32.13;;;1.50;97.20;;;;;;5031861;28;20041;-69
2022/12/03 01:37:31;;;;;;;62.13;32.95;;;1.50;97.20;;;;;;5031141;28;20030;-68
2022/12/03 01:39:57;;;;;;;56.72;32.78;;;1.50;97.20;;;;;;5030983;28;20083;-68
2022/12/03 01:42:28;;;;;;;61.08;32.55;;;1.50;97.20;;;;;;5032502;28;20033;-68
2022/12/03 01:44:56;;;;;;;64.00;33.45;;;1.60;97.20;;;;;;5029739;28;20033;-68
2022/12/03 01:47:32;;;;;;;58.35;32.25;;;1.60;97.30;;;;;;5031581;28;20022;-68
2022/12/03 01:50:21;;;;;;;57.97;32.45;;;1.50;97.10;;;;;;5028789;28;20075;-68
2022/12/03 01:52:48;;;;;;;64.13;31.40;;;1.60;97.20;;;;;;5031480;28;20561;-69
2022/12/03 01:55:17;;;;;;;63.05;31.67;;;1.60;97.20;;;;;;5030864;28;20030;-68
2022/12/03 01:57:44;;;;;;;61.97;31.77;;;1.50;97.10;;;;;;5031057;28;20493;-68
2022/12/03 02:00:16;;;;;;;58.58;30.10;;;1.50;97.10;;;;;;5028894;28;20053;-68
2022/12/03 02:02:41;;;;;;;58.10;30.52;;;1.50;97.20;;;;;;5029138;28;20036;-68
2022/12/03 02:05:33;;;;;;;49.80;28.58;;;1.50;97.10;;;;;;5030967;28;20033;-68
2022/12/03 02:08:01;;;;;;;49.97;27.52;;;1.60;97.20;;;;;;5029645;28;20021;-69
2022/12/03 02:10:36;;;;;;;48.15;27.48;;;1.50;97.10;;;;;;5031680;28;20121;-69
2022/12/03 02:13:06;;;;;;;53.42;29.02;;;1.60;97.10;;;;;;5030566;28;20065;-68
2022/12/03 02:15:31;;;;;;;52.35;27.83;;;1.60;97.00;;;;;;5029587;28;20092;-68
2022/12/03 02:17:57;;;;;;;52.55;30.35;;;1.60;97.00;;;;;;5030088;28;20121;-69
2022/12/03 02:20:24;;;;;;;52.88;28.58;;;1.60;96.90;;;;;;5031548;28;20029;-68
2022/12/03 02:23:08;;;;;;;49.55;26.65;;;1.50;96.90;;;;;;5030001;28;20095;-68
2022/12/03 02:25:35;;;;;;;56.15;29.48;;;1.50;96.90;;;;;;5027797;28;20427;-69
2022/12/03 02:28:03;;;;;;;49.40;27.25;;;1.50;97.00;;;;;;5029890;28;20044;-68
2022/12/03 02:30:30;;;;;;;53.45;28.92;;;1.50;97.00;;;;;;5030491;28;20475;-67
2022/12/03 02:32:57;;;;;;;49.78;27.58;;;1.50;97.00;;;;;;5025951;28;20098;-68
2022/12/03 02:35:26;;;;;;;56.15;28.52;;;1.50;97.00;;;;;;5030093;28;20049;-68
2022/12/03 02:37:59;;;;;;;50.78;27.67;;;1.50;96.90;;;;;;5029835;28;20428;-68
2022/12/03 02:40:28;;;;;;;50.13;26.42;;;1.50;97.00;;;;;;5040874;28;20033;-68
2022/12/03 02:42:57;;;;;;;53.72;27.85;;;1.50;97.00;;;;;;5031372;28;20048;-68
2022/12/03 02:45:38;;;;;;;41.47;21.63;;;1.40;96.90;;;;;;5028221;28;20044;-68
2022/12/03 02:48:16;;;;;;;48.42;26.98;;;1.40;96.90;;;;;;5030825;28;20029;-68
2022/12/03 02:50:50;;;;;;;48.10;25.40;;;1.40;96.90;;;;;;5026715;28;20501;-68
2022/12/03 02:53:41;;;;;;;47.77;25.73;;;1.40;96.90;;;;;;5031166;28;20116;-68
2022/12/03 02:56:09;;;;;;;52.20;26.17;;;1.40;96.90;;;;;;5020237;28;20037;-68
2022/12/03 02:58:35;;;;;;;52.20;29.08;;;1.40;97.00;;;;;;5025391;28;20048;-69
2022/12/03 03:01:03;;;;;;;47.38;26.80;;;1.30;97.00;;;;;;5028746;28;20039;-69
2022/12/03 03:03:29;;;;;;;49.38;27.05;;;1.40;97.10;;;;;;5027189;28;20079;-68
2022/12/03 03:05:55;;;;;;;54.80;28.20;;;1.40;97.10;;;;;;5045748;28;20071;-68
2022/12/03 03:08:23;;;;;;;50.95;27.10;;;1.50;97.10;;;;;;5030201;28;20038;-67
2022/12/03 03:10:49;;;;;;;55.80;29.88;;;1.50;96.90;;;;;;5030245;28;20068;-68
2022/12/03 03:13:17;;;;;;;45.53;26.85;;;1.50;96.90;;;;;;5028612;28;20065;-68
2022/12/03 03:15:43;;;;;;;51.05;27.85;;;1.50;97.00;;;;;;5030241;28;20045;-68
2022/12/03 03:18:10;;;;;;;51.50;27.48;;;1.60;97.00;;;;;;5031071;28;20036;-68
2022/12/03 03:20:37;;;;;;;51.85;26.58;;;1.60;96.90;;;;;;5028917;28;20037;-68
2022/12/03 03:23:11;;;;;;;56.13;28.70;;;1.60;96.90;;;;;;5029546;28;20512;-67
2022/12/03 03:25:39;;;;;;;51.13;28.15;;;1.60;96.90;;;;;;5028895;28;20029;-68
2022/12/03 03:28:06;;;;;;;56.40;30.60;;;1.50;96.80;;;;;;5030699;28;20087;-68
2022/12/03 03:30:33;;;;;;;48.30;27.05;;;1.40;96.80;;;;;;5031931;28;20037;-67
2022/12/03 03:33:00;;;;;;;51.88;27.02;;;1.40;96.90;;;;;;5032612;28;20086;-68
2022/12/03 03:35:26;;;;;;;48.05;25.70;;;1.50;97.00;;;;;;5022334;28;20033;-67
2022/12/03 03:37:53;;;;;;;50.88;28.85;;;1.50;96.90;;;;;;5034775;28;20033;-68
2022/12/03 03:40:20;;;;;;;47.40;26.75;;;1.40;96.90;;;;;;5031957;28;20149;-68
2022/12/03 03:42:46;;;;;;;55.30;27.67;;;1.40;96.90;;;;;;5035260;28;20040;-67
2022/12/03 03:45:12;;;;;;;48.85;26.58;;;1.40;96.90;;;;;;5018144;28;20055;-69
2022/12/03 03:47:38;;;;;;;50.30;27.60;;;1.40;97.00;;;;;;5030938;28;20029;-68
2022/12/03 03:50:05;;;;;;;51.70;27.55;;;1.40;97.00;;;;;;5032329;28;20408;-68
2022/12/03 03:52:31;;;;;;;47.20;26.80;;;1.40;96.90;;;;;;5034662;28;20026;-69
2022/12/03 03:54:57;;;;;;;48.35;25.55;;;1.50;97.00;;;;;;5034241;28;20094;-68
2022/12/03 03:57:22;;;;;;;51.47;29.83;;;1.50;97.00;;;;;;5032759;28;20033;-67
2022/12/03 03:59:48;;;;;;;52.10;27.83;;;1.50;97.00;;;;;;5033650;28;20061;-68
2022/12/03 04:02:23;;;;;;;47.88;27.02;;;1.50;97.00;;;;;;5034264;28;20159;-68
2022/12/03 04:04:49;;;;;;;49.55;27.17;;;1.50;96.90;;;;;;5027386;28;20045;-68
2022/12/03 04:07:16;;;;;;;46.67;25.42;;;1.60;97.00;;;;;;5030825;28;20038;-68
2022/12/03 04:09:42;;;;;;;48.05;25.83;;;1.60;97.00;;;;;;5034079;28;20511;-69
2022/12/03 04:14:53;;;;;;;50.80;27.13;;;1.60;96.90;;;;;;5034223;28;20136;-69
2022/12/03 04:17:19;;;;;;;52.05;28.00;;;1.60;96.90;;;;;;5028373;28;20113;-69
2022/12/03 04:19:46;;;;;;;51.35;27.73;;;1.50;96.80;;;;;;5033191;28;20048;-70
2022/12/03 04:28:47;;;;;;;41.63;21.25;;;1.50;96.90;;;;;;5032973;28;20400;-68
2022/12/03 04:30:26;;;;;;;52.20;28.50;;;1.50;96.80;;;;;;5033118;28;20056;-69
2022/12/03 04:35:42;;;;;;;52.25;29.38;;;1.50;96.90;;;;;;5032529;28;20040;-69
2022/12/03 04:38:12;;;;;;;50.70;26.70;;;1.50;96.90;;;;;;5032070;28;20049;-69
2022/12/03 04:43:22;;;;;;;52.50;26.10;;;1.50;96.90;;;;;;5031533;28;20100;-68
2022/12/03 04:45:48;;;;;;;51.08;28.27;;;1.50;96.90;;;;;;5031294;28;20029;-68
2022/12/03 04:48:14;;;;;;;48.05;26.38;;;1.40;96.80;;;;;;5031598;28;20034;-68
2022/12/03 04:50:40;;;;;;;53.55;28.70;;;1.50;96.90;;;;;;5032695;28;20040;-68
2022/12/03 04:53:05;;;;;;;48.42;26.00;;;1.50;97.10;;;;;;5031485;28;20029;-68
2022/12/03 04:55:31;;;;;;;49.15;26.23;;;1.50;96.90;;;;;;5031807;28;20064;-68
2022/12/03 04:57:57;;;;;;;47.65;27.90;;;1.50;96.90;;;;;;5032026;28;20071;-67
2022/12/03 05:00:22;;;;;;;46.85;25.80;;;1.50;97.00;;;;;;5031556;28;20049;-68
2022/12/03 05:02:48;;;;;;;48.63;27.38;;;1.50;97.00;;;;;;5029942;28;20032;-69
2022/12/03 05:05:14;;;;;;;51.28;28.83;;;1.60;97.00;;;;;;5032008;28;20056;-69
2022/12/03 05:07:39;;;;;;;48.33;27.20;;;1.50;96.90;;;;;;5031486;28;20022;-68
2022/12/03 05:10:06;;;;;;;50.28;27.10;;;1.50;96.90;;;;;;5032865;28;20029;-68
2022/12/03 05:12:32;;;;;;;52.80;26.70;;;1.60;97.00;;;;;;5030145;28;20021;-67
2022/12/03 05:14:58;;;;;;;41.00;23.77;;;1.60;97.00;;;;;;5032098;28;20563;-67
2022/12/03 05:17:23;;;;;;;44.80;24.42;;;1.60;97.00;;;;;;5024140;28;20472;-67
2022/12/03 05:22:33;;;;;;;46.45;24.92;;;1.60;97.00;;;;;;5030890;28;20079;-68
2022/12/03 05:24:59;;;;;;;52.28;26.77;;;1.60;96.90;;;;;;5031430;28;20427;-67
2022/12/03 05:27:25;;;;;;;45.28;26.67;;;1.60;96.90;;;;;;5031191;28;20060;-68
2022/12/03 05:29:51;;;;;;;50.75;26.85;;;1.50;96.90;;;;;;5031848;28;20033;-67
2022/12/03 05:32:18;;;;;;;50.00;26.95;;;1.50;97.00;;;;;;5031965;28;20029;-68
2022/12/03 05:34:44;;;;;;;50.40;27.25;;;1.50;97.00;;;;;;5026346;28;20045;-68
2022/12/03 05:37:09;;;;;;;54.00;29.27;;;1.50;97.00;;;;;;5026381;28;20068;-67
2022/12/03 05:39:35;;;;;;;48.97;26.38;;;1.40;97.00;;;;;;5028996;28;20045;-68
2022/12/03 05:44:45;;;;;;;56.20;27.55;;;1.40;97.10;;;;;;5031265;28;20107;-67
2022/12/03 05:47:11;;;;;;;56.60;29.10;;;1.30;97.20;;;;;;5030600;28;20472;-68
2022/12/03 05:49:37;;;;;;;54.78;29.10;;;1.30;97.20;;;;;;5023241;28;20437;-68
2022/12/03 05:52:02;;;;;;;51.53;26.30;;;1.30;97.30;;;;;;5028126;28;20071;-69
2022/12/03 05:54:28;;;;;;;50.72;27.75;;;1.40;97.30;;;;;;5029362;28;20487;-69
2022/12/03 05:56:55;;;;;;;49.90;27.50;;;1.40;97.30;;;;;;5025431;28;20068;-68
2022/12/03 05:59:21;;;;;;;52.17;29.13;;;1.40;97.40;;;;;;5028963;28;20076;-68
2022/12/03 06:01:46;;;;;;;49.33;28.02;;;1.50;97.50;;;;;;5029544;28;20037;-67
2022/12/03 06:04:12;;;;;;;53.78;29.38;;;1.40;97.50;;;;;;5044739;28;20044;-68
2022/12/03 06:06:37;;;;;;;51.38;28.50;;;1.30;97.50;;;;;;5028347;28;20025;-69
2022/12/03 06:09:04;;;;;;;54.85;27.85;;;1.30;97.60;;;;;;5032449;28;20036;-69
2022/12/03 06:11:32;;;;;;;49.55;26.48;;;1.40;97.70;;;;;;5030922;28;20044;-68
2022/12/03 06:13:58;;;;;;;49.00;28.95;;;1.40;97.70;;;;;;5032220;28;20040;-68
2022/12/03 06:16:23;;;;;;;53.90;29.15;;;1.30;97.80;;;;;;5031417;28;20033;-68
2022/12/03 06:18:49;;;;;;;52.95;28.02;;;1.30;97.80;;;;;;5032086;28;20404;-68
2022/12/03 06:21:15;;;;;;;58.83;29.80;;;1.30;97.90;;;;;;5031358;28;20064;-68
2022/12/03 06:23:43;;;;;;;54.90;28.73;;;1.30;98.10;;;;;;5032103;28;20037;-68
2022/12/03 06:26:10;;;;;;;54.38;28.83;;;1.30;98.00;;;;;;5047004;28;20072;-67
2022/12/03 06:28:35;;;;;;;58.95;29.30;;;1.20;98.10;;;;;;5032029;28;20026;-67
2022/12/03 06:31:01;;;;;;;61.20;29.55;;;1.20;98.10;;;;;;5031149;28;20029;-67
2022/12/03 06:33:27;;;;;;;47.80;27.83;;;1.20;98.10;;;;;;5031904;28;20025;-68
2022/12/03 06:35:52;;;;;;;53.72;28.88;;;1.20;98.10;;;;;;5031434;28;20108;-68
2022/12/03 06:38:18;;;;;;;56.33;26.60;;;1.20;98.10;;;;;;5032325;28;20060;-67
2022/12/03 06:40:43;;;;;;;60.30;30.38;;;1.20;98.20;;;;;;5030693;28;20018;-68
2022/12/03 06:43:09;;;;;;;54.03;28.33;;;1.20;98.40;;;;;;5029540;28;20076;-68
2022/12/03 06:45:35;;;;;;;57.00;28.23;;;1.10;98.30;;;;;;5027313;28;20120;-69
2022/12/03 06:48:00;;;;;;;57.78;30.35;;;1.10;98.40;;;;;;5028240;28;20038;-68
2022/12/03 06:50:26;;;;;;;61.83;28.70;;;1.20;98.50;;;;;;5028905;28;20022;-66
2022/12/03 06:52:52;;;;;;;53.13;28.92;;;1.10;98.40;;;;;;5028911;28;20118;-66
2022/12/03 06:55:17;;;;;;;54.20;32.33;;;1.20;98.50;;;;;;5028627;28;20527;-66
2022/12/03 06:57:43;;;;;;;51.17;27.55;;;1.20;98.50;;;;;;5028302;28;20029;-66
2022/12/03 07:00:10;;;;;;;47.78;27.33;;;1.10;98.40;;;;;;5024530;28;20060;-66
2022/12/03 07:02:36;;;;;;;64.05;30.23;;;1.20;98.50;;;;;;5042399;28;20029;-66
2022/12/03 07:05:02;;;;;;;56.25;29.45;;;1.20;98.50;;;;;;5030832;28;20029;-65
2022/12/03 07:07:28;;;;;;;57.25;30.98;;;1.20;98.50;;;;;;5030248;28;20025;-66
2022/12/03 07:09:54;;;;;;;54.90;29.15;;;1.20;98.60;;;;;;5030982;28;20025;-66
2022/12/03 07:12:20;;;;;;;52.30;26.58;;;1.20;98.60;;;;;;5042598;28;20018;-66
2022/12/03 07:14:46;;;;;;;61.30;31.63;;;1.20;98.70;;;;;;5027886;28;20090;-66
2022/12/03 07:17:12;;;;;;;51.25;27.90;;;1.20;98.70;;;;;;5029532;28;20029;-66
2022/12/03 07:19:37;;;;;;;54.22;28.70;;;1.20;98.70;;;;;;5027478;28;20465;-66
2022/12/03 07:22:03;;;;;;;62.80;32.20;;;1.10;98.70;;;;;;5030643;28;20044;-66
2022/12/03 07:24:28;;;;;;;55.80;30.13;;;1.10;98.90;;;;;;5029685;28;20040;-66
2022/12/03 07:26:54;;;;;;;54.03;28.45;;;1.00;98.80;;;;;;5028166;28;20562;-68
2022/12/03 07:29:20;;;;;;;59.53;30.90;;;1.00;98.90;;;;;;5027874;28;20427;-65
2022/12/03 07:31:45;;;;;;;61.70;31.55;;;1.00;99.00;;;;;;5030343;28;20120;-66
2022/12/03 07:34:11;;;;;;;54.05;30.48;;;1.00;99.00;;;;;;5024057;28;20103;-66
2022/12/03 07:36:37;;;;;;;59.95;30.67;;;1.00;99.00;;;;;;5029287;28;20041;-65
2022/12/03 07:39:02;;;;;;;60.95;30.55;;;1.00;99.00;;;;;;5022141;28;20384;-65
2022/12/03 07:41:28;;;;;;;61.30;33.30;;;1.00;99.00;;;;;;5030512;28;20037;-66
2022/12/03 07:43:54;;;;;;;61.17;31.67;;;1.00;99.00;;;;;;5027544;28;20073;-66
2022/12/03 07:46:19;;;;;;;62.17;33.40;;;1.00;99.10;;;;;;5012992;28;20113;-65
2022/12/03 07:48:45;;;;;;;62.53;32.63;;;0.90;99.10;;;;;;5027454;28;20037;-65
2022/12/03 07:51:10;;;;;;;64.30;31.13;;;1.00;99.20;;;;;;5022725;28;20076;-66
2022/12/03 07:53:36;;;;;;;63.50;30.80;;;1.00;99.30;;;;;;5028800;28;20088;-66
2022/12/03 07:56:03;;;;;;;61.22;31.73;;;1.00;99.20;;;;;;5027920;28;20037;-66
2022/12/03 07:58:29;;;;;;;55.85;29.60;;;1.00;99.10;;;;;;5025586;28;20507;-67
2022/12/03 08:00:56;;;;;;;60.88;31.50;;;0.90;99.20;;;;;;5025420;28;20037;-67
2022/12/03 08:03:21;;;;;;;57.97;30.40;;;1.00;99.20;;;;;;5024005;28;20107;-66
2022/12/03 08:05:47;;;;;;;63.15;30.20;;;1.00;99.20;;;;;;5037607;28;20481;-68
2022/12/03 08:08:14;;;;;;;63.70;31.35;;;1.00;99.20;;;;;;5028227;28;20045;-65
2022/12/03 08:10:41;;;;;;;56.33;31.63;;;1.10;99.30;;;;;;5023416;28;20040;-65
2022/12/03 08:13:14;;;;;;;57.15;29.83;;;1.10;99.20;;;;;;5029691;28;20467;-66
2022/12/03 08:15:41;;;;;;;64.93;32.70;;;1.00;99.30;;;;;;5031267;28;20052;-66
2022/12/03 08:18:18;;;;;;;57.38;31.35;;;1.00;99.20;;;;;;5034083;28;20033;-66
2022/12/03 08:20:47;;;;;;;59.28;31.13;;;1.10;99.30;;;;;;5047846;28;20037;-66
2022/12/03 08:23:20;;;;;;;60.70;33.63;;;1.10;99.20;;;;;;5046965;28;20116;-66
2022/12/03 08:25:48;;;;;;;57.05;30.40;;;1.10;99.20;;;;;;5029392;28;20043;-65
2022/12/03 08:28:25;;;;;;;61.53;31.90;;;1.20;99.20;;;;;;5023843;28;20033;-65
2022/12/03 08:31:07;;;;;;;65.00;31.33;;;1.10;99.20;;;;;;5024060;28;20381;-65
2022/12/03 08:33:34;;;;;;;62.70;33.28;;;1.10;99.20;;;;;;5025300;28;20095;-66
2022/12/03 08:36:21;;;;;;;58.35;31.15;;;1.10;99.20;;;;;;5031123;28;20033;-65
2022/12/03 08:38:50;;;;;;;59.30;31.75;;;1.10;99.20;;;;;;5025967;28;20060;-67
2022/12/03 08:42:40;;;;;;;58.15;30.83;;;1.20;99.30;;;;;;5031874;28;20484;-65
2022/12/03 08:44:28;;;;;;;61.55;31.05;;;1.20;99.30;;;;;;5033457;28;20033;-66
2022/12/03 08:47:29;;;;;;;61.30;29.80;;;1.20;99.30;;;;;;5030332;28;20025;-65
2022/12/03 08:50:02;;;;;;;59.90;31.00;;;1.20;99.40;;;;;;4972286;28;20035;-66
2022/12/03 08:52:32;;;;;;;70.68;34.67;;;1.20;99.40;;;;;;5024730;28;20503;-66
2022/12/03 08:55:01;;;;;;;67.55;33.42;;;1.30;99.40;;;;;;5039288;28;20033;-66
2022/12/03 08:57:33;;;;;;;61.40;32.47;;;1.30;99.40;;;;;;5032245;28;20052;-66
2022/12/03 09:00:19;;;;;;;64.25;30.38;;;1.30;99.40;;;;;;5032944;28;20041;-66
2022/12/03 09:02:51;;;;;;;62.15;31.00;;;1.30;99.40;;;;;;5030680;28;20029;-67
2022/12/03 09:05:23;;;;;;;58.22;32.45;;;1.30;99.40;;;;;;5030907;28;20022;-66
2022/12/03 09:07:49;;;;;;;61.22;31.58;;;1.30;99.50;;;;;;5044551;28;20087;-66
2022/12/03 09:10:15;;;;;;;58.78;31.83;;;1.30;99.60;;;;;;5031772;28;20029;-66
2022/12/03 09:12:42;;;;;;;67.32;31.67;;;1.30;99.60;;;;;;5032558;28;20025;-65
2022/12/03 09:15:08;;;;;;;59.03;31.45;;;1.30;99.60;;;;;;5045172;28;20472;-65
2022/12/03 09:17:34;;;;;;;59.17;32.33;;;1.40;99.60;;;;;;5030274;28;20041;-65
2022/12/03 09:20:00;;;;;;;61.50;29.92;;;1.40;99.60;;;;;;5032926;28;20030;-66
2022/12/03 09:22:26;;;;;;;64.45;31.92;;;1.50;99.60;;;;;;5028151;28;20040;-66
2022/12/03 09:24:51;;;;;;;63.97;31.73;;;1.50;99.80;;;;;;5031934;28;20064;-65
2022/12/03 09:27:17;;;;;;;68.38;33.67;;;1.40;99.70;;;;;;5031516;28;20025;-66
2022/12/03 09:29:43;;;;;;;64.20;33.08;;;1.40;99.70;;;;;;5031840;28;20112;-66
2022/12/03 09:32:08;;;;;;;72.43;36.03;;;1.40;99.70;;;;;;5030435;28;20164;-66
2022/12/03 09:34:34;;;;;;;63.72;31.98;;;1.50;99.80;;;;;;5030036;28;20041;-65
2022/12/03 09:37:00;;;;;;;65.95;33.10;;;1.50;99.70;;;;;;5029630;28;20026;-64
2022/12/03 09:39:26;;;;;;;60.80;30.20;;;1.60;99.80;;;;;;5028461;28;20484;-66
2022/12/03 09:41:52;;;;;;;58.10;30.65;;;1.60;99.70;;;;;;5031908;28;20091;-66
2022/12/03 09:44:17;;;;;;;60.38;31.35;;;1.60;99.80;;;;;;5029791;28;20148;-65
2022/12/03 09:46:46;;;;;;;62.40;32.65;;;1.70;99.80;;;;;;5028490;28;20033;-66
2022/12/03 09:49:14;;;;;;;54.67;31.38;;;1.70;99.70;;;;;;5031730;28;20091;-66
2022/12/03 09:51:40;;;;;;;64.30;32.65;;;1.70;99.70;;;;;;5032639;28;20026;-67
2022/12/03 09:54:06;;;;;;;58.33;32.22;;;1.70;99.70;;;;;;5029540;28;20083;-67
2022/12/03 09:56:34;;;;;;;65.25;32.22;;;1.70;99.60;;;;;;5029704;28;20112;-68
2022/12/03 09:59:01;;;;;;;61.38;33.88;;;1.70;99.60;;;;;;5027399;28;20103;-68
2022/12/03 10:01:27;;;;;;;67.88;32.90;;;1.70;99.60;;;;;;5029224;28;20120;-67
2022/12/03 10:03:52;;;;;;;63.75;31.85;;;1.70;99.50;;;;;;5029695;28;20136;-67
2022/12/03 10:06:22;;;;;;;58.10;31.77;;;1.70;99.50;;;;;;5029411;28;20040;-66
2022/12/03 10:08:53;;;;;;;58.35;30.85;;;1.70;99.50;;;;;;5030407;28;20087;-66
2022/12/03 10:11:23;;;;;;;60.75;32.28;;;1.70;99.50;;;;;;5031179;28;20029;-66
2022/12/03 10:13:49;;;;;;;63.97;33.60;;;1.60;99.50;;;;;;5030866;28;20115;-65
2022/12/03 10:16:17;;;;;;;55.50;27.67;;;1.60;99.50;;;;;;5026146;28;20029;-67
2022/12/03 10:18:52;;;;;;;59.17;30.73;;;1.70;99.50;;;;;;5020811;28;20033;-67
2022/12/03 10:21:30;;;;;;;59.33;29.70;;;1.70;99.60;;;;;;5028991;28;20110;-65
2022/12/03 10:24:25;;;;;;;60.17;31.15;;;1.70;99.60;;;;;;5025490;28;20051;-67
2022/12/03 10:26:53;;;;;;;64.13;33.33;;;1.70;99.50;;;;;;5028491;28;20041;-66
2022/12/03 10:29:25;;;;;;;64.15;33.08;;;1.80;99.50;;;;;;5030547;28;20276;-67
2022/12/03 10:32:03;;;;;;;67.07;34.60;;;1.80;99.50;;;;;;5025168;28;20380;-65
2022/12/03 10:34:32;;;;;;;70.22;32.15;;;1.80;99.50;;;;;;5019484;28;20117;-66
2022/12/03 10:37:15;;;;;;;72.13;33.92;;;1.70;99.50;;;;;;5026371;28;20041;-67
2022/12/03 10:39:56;;;;;;;58.50;30.23;;;1.80;99.50;;;;;;5027538;28;20025;-66
2022/12/03 10:42:24;;;;;;;66.80;33.70;;;1.70;99.40;;;;;;5022370;28;20487;-67
2022/12/03 10:45:08;;;;;;;63.53;31.00;;;1.70;99.30;;;;;;5028388;28;20052;-66
2022/12/03 10:47:34;;;;;;;61.75;30.63;;;1.70;99.40;;;;;;5028963;28;20025;-66
2022/12/03 10:50:05;;;;;;;61.70;30.67;;;1.70;99.60;;;;;;5029837;28;20049;-66
2022/12/03 10:52:31;;;;;;;68.93;33.33;;;1.70;99.40;;;;;;5029146;28;20044;-67
2022/12/03 10:54:57;;;;;;;69.65;33.70;;;1.70;99.60;;;;;;5029981;28;20025;-67
2022/12/03 10:57:23;;;;;;;62.22;31.50;;;1.70;99.40;;;;;;5030375;28;20029;-67
2022/12/03 10:59:49;;;;;;;69.03;33.08;;;1.70;99.40;;;;;;5032737;28;20076;-67
2022/12/03 11:02:21;;;;;;;55.67;30.30;;;1.70;99.40;;;;;;5027933;28;20040;-67
2022/12/03 11:04:47;;;;;;;62.30;31.77;;;1.70;99.50;;;;;;5024351;28;20030;-67
2022/12/03 11:07:15;;;;;;;57.50;29.05;;;1.80;99.50;;;;;;5027152;28;20057;-66
2022/12/03 11:09:48;;;;;;;66.80;32.10;;;1.80;99.40;;;;;;5031235;28;20033;-67
2022/12/03 11:12:26;;;;;;;63.45;32.25;;;1.80;99.40;;;;;;5025956;28;20030;-67
2022/12/03 11:14:52;;;;;;;59.75;29.33;;;1.80;99.40;;;;;;5031135;28;20037;-66
2022/12/03 11:17:24;;;;;;;60.72;31.08;;;1.80;99.30;;;;;;5026893;28;20084;-67
2022/12/03 11:19:50;;;;;;;63.45;31.95;;;1.90;99.40;;;;;;5029116;28;20022;-66
2022/12/03 11:22:24;;;;;;;59.20;29.13;;;1.90;99.40;;;;;;5028233;28;20037;-68
2022/12/03 11:25:24;;;;;;;57.40;30.17;;;2.00;99.40;;;;;;5023440;28;20037;-67
2022/12/03 11:28:12;;;;;;;60.33;30.10;;;2.00;99.30;;;;;;5024740;28;20284;-67
2022/12/03 11:30:50;;;;;;;62.50;29.17;;;2.00;99.30;;;;;;5025088;28;20029;-67
2022/12/03 11:33:21;;;;;;;58.05;28.23;;;2.00;99.30;;;;;;5028079;28;20087;-67
2022/12/03 11:36:02;;;;;;;54.63;27.65;;;2.10;99.30;;;;;;5023391;28;20033;-67
2022/12/03 11:38:37;;;;;;;52.80;28.67;;;2.10;99.30;;;;;;5038738;28;20040;-67
2022/12/03 11:41:30;;;;;;;58.72;28.85;;;2.10;99.30;;;;;;5019228;28;20037;-67
2022/12/03 11:44:24;;;;;;;55.45;27.35;;;2.10;99.30;;;;;;5026267;28;20068;-67
2022/12/03 11:46:49;;;;;;;46.28;25.52;;;2.20;99.20;;;;;;5022309;28;20619;-67
2022/12/03 11:49:24;;;;;;;59.50;29.42;;;2.20;99.20;;;;;;5018825;28;20083;-67
2022/12/03 11:51:50;;;;;;;53.88;27.38;;;2.20;99.20;;;;;;5041601;28;20407;-67
2022/12/03 11:54:17;;;;;;;55.38;29.42;;;2.20;99.20;;;;;;5033168;28;20037;-68
2022/12/03 11:56:46;;;;;;;56.30;27.83;;;2.20;99.20;;;;;;5031836;28;20025;-67
2022/12/03 11:59:12;;;;;;;58.97;29.42;;;2.20;99.10;;;;;;5031838;28;20377;-67
2022/12/03 12:01:40;;;;;;;56.53;29.65;;;2.30;99.10;;;;;;5033295;28;20113;-67
2022/12/03 12:04:07;;;;;;;50.80;28.08;;;2.30;99.10;;;;;;5034651;28;20076;-67
2022/12/03 12:06:41;;;;;;;52.60;26.02;;;2.30;99.10;;;;;;5030612;28;20372;-67
2022/12/03 12:09:07;;;;;;;57.22;29.35;;;2.40;99.20;;;;;;5031682;28;20128;-67
2022/12/03 12:11:35;;;;;;;62.75;29.88;;;2.40;99.10;;;;;;5034627;28;20546;-67
2022/12/03 12:14:02;;;;;;;60.28;28.95;;;2.40;99.10;;;;;;5033165;28;20047;-67
2022/12/03 12:16:48;;;;;;;59.33;28.98;;;2.40;99.10;;;;;;5034045;28;20057;-67
2022/12/03 12:19:42;;;;;;;64.13;29.13;;;2.40;99.10;;;;;;5033585;28;20037;-66
2022/12/03 12:22:28;;;;;;;55.60;26.90;;;2.40;99.00;;;;;;5032418;28;20495;-67
2022/12/03 12:24:57;;;;;;;50.45;26.38;;;2.40;98.90;;;;;;5026459;28;20068;-67
2022/12/03 12:27:29;;;;;;;52.88;26.70;;;2.40;98.90;;;;;;5031751;28;20480;-67
2022/12/03 12:30:02;;;;;;;56.13;28.85;;;2.30;98.90;;;;;;5033527;28;20056;-67
2022/12/03 12:32:33;;;;;;;54.53;26.55;;;2.30;98.90;;;;;;5030941;28;20543;-67
2022/12/03 12:35:18;;;;;;;54.80;28.95;;;2.30;98.90;;;;;;5033762;28;20041;-67
2022/12/03 12:38:06;;;;;;;54.72;26.30;;;2.20;99.00;;;;;;5023096;28;20546;-67
2022/12/03 12:40:35;;;;;;;61.40;29.02;;;2.20;98.90;;;;;;5032701;28;20073;-67
2022/12/03 12:43:21;;;;;;;54.45;26.95;;;2.20;98.90;;;;;;5033832;28;20509;-67
2022/12/03 12:45:50;;;;;;;52.40;28.13;;;2.20;98.90;;;;;;5032661;28;20388;-67
2022/12/03 12:48:26;;;;;;;52.92;27.83;;;2.30;98.90;;;;;;5032629;28;20121;-66
2022/12/03 12:51:08;;;;;;;56.55;26.48;;;2.30;98.90;;;;;;5043164;28;20025;-66
2022/12/03 12:53:35;;;;;;;56.05;26.40;;;2.30;98.90;;;;;;5051860;28;20515;-67
2022/12/03 12:56:00;;;;;;;47.55;24.92;;;2.30;98.90;;;;;;5033667;28;20083;-67
2022/12/03 12:58:30;;;;;;;57.03;28.23;;;2.30;98.90;;;;;;5032427;28;20033;-66
2022/12/03 13:01:03;;;;;;;52.65;27.48;;;2.30;98.90;;;;;;5026456;28;20388;-67
2022/12/03 13:03:33;;;;;;;51.67;27.27;;;2.30;98.90;;;;;;5032603;28;20117;-66